sensor_id;sensor_type;location;lat;lon;timestamp;temperature;humidity
22578;DHT22;11455;52.390;13.028;2023-04-15T00:02:38;9.30;1.00
22578;DHT22;11455;52.390;13.028;2023-04-15T00:05:04;9.30;1.00
22578;DHT22;11455;52.390;13.028;2023-04-15T00:07:30;9.30;1.00
22578;DHT22;11455;52.390;13.028;2023-04-15T00:09:56;9.30;1.00
22578;DHT22;11455;52.390;13.028;2023-04-15T00:12:23;9.40;1.00
22578;DHT22;11455;52.390;13.028;2023-04-15T00:14:48;9.30;1.00
22578;DHT22;11455;52.390;13.028;2023-04-15T00:17:15;9.30;1.00
22578;DHT22;11455;52.390;13.028;2023-04-15T00:19:41;9.30;1.00
22578;DHT22;11455;52.390;13.028;2023-04-15T00:22:07;9.40;1.00
22578;DHT22;11455;52.390;13.028;2023-04-15T00:24:35;9.40;1.00
22578;DHT22;11455;52.390;13.028;2023-04-15T00:27:01;9.30;1.00
22578;DHT22;11455;52.390;13.028;2023-04-15T00:29:27;9.20;1.00
22578;DHT22;11455;52.390;13.028;2023-04-15T00:31:52;9.30;1.00
22578;DHT22;11455;52.390;13.028;2023-04-15T00:34:18;9.30;1.00
22578;DHT22;11455;52.390;13.028;2023-04-15T00:36:44;9.30;1.00
22578;DHT22;11455;52.390;13.028;2023-04-15T00:39:10;9.40;1.00
22578;DHT22;11455;52.390;13.028;2023-04-15T00:41:36;9.40;1.00
22578;DHT22;11455;52.390;13.028;2023-04-15T00:44:05;9.40;1.00
22578;DHT22;11455;52.390;13.028;2023-04-15T00:46:30;9.50;1.00
22578;DHT22;11455;52.390;13.028;2023-04-15T00:48:58;9.50;1.00
22578;DHT22;11455;52.390;13.028;2023-04-15T00:51:24;9.60;1.00
22578;DHT22;11455;52.390;13.028;2023-04-15T00:53:50;9.60;1.00
22578;DHT22;11455;52.390;13.028;2023-04-15T00:56:16;9.60;1.00
22578;DHT22;11455;52.390;13.028;2023-04-15T00:58:42;9.60;1.00
22578;DHT22;11455;52.390;13.028;2023-04-15T01:01:08;9.60;1.00
22578;DHT22;11455;52.390;13.028;2023-04-15T01:03:34;9.60;1.00
22578;DHT22;11455;52.390;13.028;2023-04-15T01:06:00;9.60;1.00
22578;DHT22;11455;52.390;13.028;2023-04-15T01:08:27;9.60;1.00
22578;DHT22;11455;52.390;13.028;2023-04-15T01:10:54;9.70;1.00
22578;DHT22;11455;52.390;13.028;2023-04-15T01:13:21;9.70;1.00
22578;DHT22;11455;52.390;13.028;2023-04-15T01:15:48;9.70;1.00
22578;DHT22;11455;52.390;13.028;2023-04-15T01:18:17;9.60;1.00
22578;DHT22;11455;52.390;13.028;2023-04-15T01:20:43;9.60;1.00
22578;DHT22;11455;52.390;13.028;2023-04-15T01:23:09;9.60;1.00
22578;DHT22;11455;52.390;13.028;2023-04-15T01:25:35;9.60;1.00
22578;DHT22;11455;52.390;13.028;2023-04-15T01:28:01;9.60;1.00
22578;DHT22;11455;52.390;13.028;2023-04-15T01:30:27;9.60;1.00
22578;DHT22;11455;52.390;13.028;2023-04-15T01:32:53;9.60;1.00
22578;DHT22;11455;52.390;13.028;2023-04-15T01:35:19;9.60;1.00
22578;DHT22;11455;52.390;13.028;2023-04-15T01:37:45;9.70;1.00
22578;DHT22;11455;52.390;13.028;2023-04-15T01:40:15;9.70;1.00
22578;DHT22;11455;52.390;13.028;2023-04-15T01:42:41;9.60;1.00
22578;DHT22;11455;52.390;13.028;2023-04-15T01:45:07;9.60;1.00
22578;DHT22;11455;52.390;13.028;2023-04-15T01:47:35;9.60;1.00
22578;DHT22;11455;52.390;13.028;2023-04-15T01:50:02;9.60;1.00
22578;DHT22;11455;52.390;13.028;2023-04-15T01:52:27;9.60;1.00
22578;DHT22;11455;52.390;13.028;2023-04-15T01:54:53;9.60;1.00
22578;DHT22;11455;52.390;13.028;2023-04-15T01:57:19;9.60;1.00
22578;DHT22;11455;52.390;13.028;2023-04-15T01:59:44;9.70;1.00
22578;DHT22;11455;52.390;13.028;2023-04-15T02:02:10;9.80;1.00
22578;DHT22;11455;52.390;13.028;2023-04-15T02:04:36;9.80;1.00
22578;DHT22;11455;52.390;13.028;2023-04-15T02:07:02;9.80;1.00
22578;DHT22;11455;52.390;13.028;2023-04-15T02:09:30;9.80;1.00
22578;DHT22;11455;52.390;13.028;2023-04-15T02:11:56;9.80;1.00
22578;DHT22;11455;52.390;13.028;2023-04-15T02:14:26;9.80;1.00
22578;DHT22;11455;52.390;13.028;2023-04-15T02:17:01;9.80;1.00
22578;DHT22;11455;52.390;13.028;2023-04-15T02:19:34;9.80;1.00
22578;DHT22;11455;52.390;13.028;2023-04-15T02:22:02;9.80;1.00
22578;DHT22;11455;52.390;13.028;2023-04-15T02:24:28;9.80;1.00
22578;DHT22;11455;52.390;13.028;2023-04-15T02:26:55;9.80;1.00
22578;DHT22;11455;52.390;13.028;2023-04-15T02:29:24;9.80;1.00
22578;DHT22;11455;52.390;13.028;2023-04-15T02:31:49;9.80;1.00
22578;DHT22;11455;52.390;13.028;2023-04-15T02:34:15;9.70;1.00
22578;DHT22;11455;52.390;13.028;2023-04-15T02:36:43;9.70;1.00
22578;DHT22;11455;52.390;13.028;2023-04-15T02:39:10;9.80;1.00
22578;DHT22;11455;52.390;13.028;2023-04-15T02:41:37;9.90;1.00
22578;DHT22;11455;52.390;13.028;2023-04-15T02:44:03;9.90;1.00
22578;DHT22;11455;52.390;13.028;2023-04-15T02:46:29;9.90;1.00
22578;DHT22;11455;52.390;13.028;2023-04-15T02:48:55;9.80;1.00
22578;DHT22;11455;52.390;13.028;2023-04-15T02:51:22;9.80;1.00
22578;DHT22;11455;52.390;13.028;2023-04-15T02:53:48;9.80;1.00
22578;DHT22;11455;52.390;13.028;2023-04-15T02:56:14;9.80;1.00
22578;DHT22;11455;52.390;13.028;2023-04-15T02:58:42;9.80;1.00
22578;DHT22;11455;52.390;13.028;2023-04-15T03:01:08;9.90;1.00
22578;DHT22;11455;52.390;13.028;2023-04-15T03:03:33;9.90;1.00
22578;DHT22;11455;52.390;13.028;2023-04-15T03:05:59;9.90;1.00
22578;DHT22;11455;52.390;13.028;2023-04-15T03:08:25;9.90;1.00
22578;DHT22;11455;52.390;13.028;2023-04-15T03:10:51;9.90;1.00
22578;DHT22;11455;52.390;13.028;2023-04-15T03:13:17;9.90;1.00
22578;DHT22;11455;52.390;13.028;2023-04-15T03:15:46;9.90;1.00
22578;DHT22;11455;52.390;13.028;2023-04-15T03:18:13;9.90;1.00
22578;DHT22;11455;52.390;13.028;2023-04-15T03:20:39;10.00;1.00
22578;DHT22;11455;52.390;13.028;2023-04-15T03:23:05;10.00;1.00
22578;DHT22;11455;52.390;13.028;2023-04-15T03:25:33;10.00;1.00
22578;DHT22;11455;52.390;13.028;2023-04-15T03:28:02;10.00;1.00
22578;DHT22;11455;52.390;13.028;2023-04-15T03:30:28;9.90;1.00
22578;DHT22;11455;52.390;13.028;2023-04-15T03:32:54;9.90;1.00
22578;DHT22;11455;52.390;13.028;2023-04-15T03:35:19;9.90;1.00
22578;DHT22;11455;52.390;13.028;2023-04-15T03:37:45;9.90;1.00
22578;DHT22;11455;52.390;13.028;2023-04-15T03:40:13;10.00;1.00
22578;DHT22;11455;52.390;13.028;2023-04-15T03:42:39;10.00;1.00
22578;DHT22;11455;52.390;13.028;2023-04-15T03:45:05;10.00;1.00
22578;DHT22;11455;52.390;13.028;2023-04-15T03:47:32;10.10;1.00
22578;DHT22;11455;52.390;13.028;2023-04-15T03:49:57;10.00;1.00
22578;DHT22;11455;52.390;13.028;2023-04-15T03:52:25;10.00;1.00
22578;DHT22;11455;52.390;13.028;2023-04-15T03:54:51;10.00;1.00
22578;DHT22;11455;52.390;13.028;2023-04-15T03:57:17;10.00;1.00
22578;DHT22;11455;52.390;13.028;2023-04-15T03:59:42;10.00;1.00
22578;DHT22;11455;52.390;13.028;2023-04-15T04:02:08;10.00;1.00
22578;DHT22;11455;52.390;13.028;2023-04-15T04:04:34;10.10;1.00
22578;DHT22;11455;52.390;13.028;2023-04-15T04:06:59;10.10;1.00
22578;DHT22;11455;52.390;13.028;2023-04-15T04:09:25;10.20;1.00
22578;DHT22;11455;52.390;13.028;2023-04-15T04:11:52;10.20;1.00
22578;DHT22;11455;52.390;13.028;2023-04-15T04:14:17;10.20;1.00
22578;DHT22;11455;52.390;13.028;2023-04-15T04:16:43;10.20;1.00
22578;DHT22;11455;52.390;13.028;2023-04-15T04:19:09;10.10;1.00
22578;DHT22;11455;52.390;13.028;2023-04-15T04:21:35;10.10;1.00
22578;DHT22;11455;52.390;13.028;2023-04-15T04:24:04;10.10;1.00
22578;DHT22;11455;52.390;13.028;2023-04-15T04:26:30;10.10;1.00
22578;DHT22;11455;52.390;13.028;2023-04-15T04:28:55;10.10;1.00
22578;DHT22;11455;52.390;13.028;2023-04-15T04:31:21;10.20;1.00
22578;DHT22;11455;52.390;13.028;2023-04-15T04:33:46;10.20;1.00
22578;DHT22;11455;52.390;13.028;2023-04-15T04:36:12;10.20;1.00
22578;DHT22;11455;52.390;13.028;2023-04-15T04:38:38;10.20;1.00
22578;DHT22;11455;52.390;13.028;2023-04-15T04:41:04;10.20;1.00
22578;DHT22;11455;52.390;13.028;2023-04-15T04:43:29;10.20;1.00
22578;DHT22;11455;52.390;13.028;2023-04-15T04:45:55;10.20;1.00
22578;DHT22;11455;52.390;13.028;2023-04-15T04:48:21;10.20;1.00
22578;DHT22;11455;52.390;13.028;2023-04-15T04:50:47;10.20;1.00
22578;DHT22;11455;52.390;13.028;2023-04-15T04:53:13;10.20;1.00
22578;DHT22;11455;52.390;13.028;2023-04-15T04:55:39;10.20;1.00
22578;DHT22;11455;52.390;13.028;2023-04-15T04:58:04;10.20;1.00
22578;DHT22;11455;52.390;13.028;2023-04-15T05:00:30;10.20;1.00
22578;DHT22;11455;52.390;13.028;2023-04-15T05:02:58;10.20;1.00
22578;DHT22;11455;52.390;13.028;2023-04-15T05:05:26;10.30;1.00
22578;DHT22;11455;52.390;13.028;2023-04-15T05:07:52;10.20;1.00
22578;DHT22;11455;52.390;13.028;2023-04-15T05:10:17;10.20;1.00
22578;DHT22;11455;52.390;13.028;2023-04-15T05:12:43;10.30;1.00
22578;DHT22;11455;52.390;13.028;2023-04-15T05:15:09;10.30;1.00
22578;DHT22;11455;52.390;13.028;2023-04-15T05:17:35;10.30;1.00
22578;DHT22;11455;52.390;13.028;2023-04-15T05:20:01;10.30;1.00
22578;DHT22;11455;52.390;13.028;2023-04-15T05:22:27;10.30;1.00
22578;DHT22;11455;52.390;13.028;2023-04-15T05:24:52;10.30;1.00
22578;DHT22;11455;52.390;13.028;2023-04-15T05:27:20;10.40;1.00
22578;DHT22;11455;52.390;13.028;2023-04-15T05:29:47;10.30;1.00
22578;DHT22;11455;52.390;13.028;2023-04-15T05:32:13;10.40;1.00
22578;DHT22;11455;52.390;13.028;2023-04-15T05:34:38;10.40;1.00
22578;DHT22;11455;52.390;13.028;2023-04-15T05:37:04;10.40;1.00
22578;DHT22;11455;52.390;13.028;2023-04-15T05:39:30;10.40;1.00
22578;DHT22;11455;52.390;13.028;2023-04-15T05:41:57;10.40;1.00
22578;DHT22;11455;52.390;13.028;2023-04-15T05:44:22;10.40;1.00
22578;DHT22;11455;52.390;13.028;2023-04-15T05:46:48;10.40;1.00
22578;DHT22;11455;52.390;13.028;2023-04-15T05:49:14;10.40;1.00
22578;DHT22;11455;52.390;13.028;2023-04-15T05:51:39;10.40;1.00
22578;DHT22;11455;52.390;13.028;2023-04-15T05:54:05;10.50;1.00
22578;DHT22;11455;52.390;13.028;2023-04-15T05:56:31;10.50;1.00
22578;DHT22;11455;52.390;13.028;2023-04-15T05:58:57;10.50;1.00
22578;DHT22;11455;52.390;13.028;2023-04-15T06:01:22;10.60;1.00
22578;DHT22;11455;52.390;13.028;2023-04-15T06:03:48;10.60;1.00
22578;DHT22;11455;52.390;13.028;2023-04-15T06:06:14;10.60;1.00
22578;DHT22;11455;52.390;13.028;2023-04-15T06:08:40;10.60;1.00
22578;DHT22;11455;52.390;13.028;2023-04-15T06:11:05;10.70;1.00
22578;DHT22;11455;52.390;13.028;2023-04-15T06:13:31;10.70;1.00
22578;DHT22;11455;52.390;13.028;2023-04-15T06:15:57;10.70;1.00
22578;DHT22;11455;52.390;13.028;2023-04-15T06:18:22;10.70;1.00
22578;DHT22;11455;52.390;13.028;2023-04-15T06:20:48;10.70;1.00
22578;DHT22;11455;52.390;13.028;2023-04-15T06:23:14;10.80;1.00
22578;DHT22;11455;52.390;13.028;2023-04-15T06:25:40;10.80;1.00
22578;DHT22;11455;52.390;13.028;2023-04-15T06:28:06;10.80;1.00
22578;DHT22;11455;52.390;13.028;2023-04-15T06:30:31;10.80;1.00
22578;DHT22;11455;52.390;13.028;2023-04-15T06:32:57;10.80;1.00
22578;DHT22;11455;52.390;13.028;2023-04-15T06:35:23;10.70;1.00
22578;DHT22;11455;52.390;13.028;2023-04-15T06:37:48;10.80;1.00
22578;DHT22;11455;52.390;13.028;2023-04-15T06:40:14;10.80;1.00
22578;DHT22;11455;52.390;13.028;2023-04-15T06:42:40;10.90;1.00
22578;DHT22;11455;52.390;13.028;2023-04-15T06:45:07;10.90;1.00
22578;DHT22;11455;52.390;13.028;2023-04-15T06:47:33;10.90;1.00
22578;DHT22;11455;52.390;13.028;2023-04-15T06:49:58;10.90;1.00
22578;DHT22;11455;52.390;13.028;2023-04-15T06:52:24;10.90;1.00
22578;DHT22;11455;52.390;13.028;2023-04-15T06:54:50;11.00;1.00
22578;DHT22;11455;52.390;13.028;2023-04-15T06:57:16;11.00;1.00
22578;DHT22;11455;52.390;13.028;2023-04-15T06:59:41;11.10;1.00
22578;DHT22;11455;52.390;13.028;2023-04-15T07:02:07;11.10;1.00
22578;DHT22;11455;52.390;13.028;2023-04-15T07:04:36;11.20;1.00
22578;DHT22;11455;52.390;13.028;2023-04-15T07:07:02;11.20;1.00
22578;DHT22;11455;52.390;13.028;2023-04-15T07:09:28;11.30;1.00
22578;DHT22;11455;52.390;13.028;2023-04-15T07:11:54;11.40;1.00
22578;DHT22;11455;52.390;13.028;2023-04-15T07:14:19;11.40;1.00
22578;DHT22;11455;52.390;13.028;2023-04-15T07:16:45;11.50;1.00
22578;DHT22;11455;52.390;13.028;2023-04-15T07:19:13;11.60;1.00
22578;DHT22;11455;52.390;13.028;2023-04-15T07:21:40;11.60;1.00
22578;DHT22;11455;52.390;13.028;2023-04-15T07:24:06;11.70;1.00
22578;DHT22;11455;52.390;13.028;2023-04-15T07:26:33;11.60;1.00
22578;DHT22;11455;52.390;13.028;2023-04-15T07:28:58;11.50;1.00
22578;DHT22;11455;52.390;13.028;2023-04-15T07:31:24;11.50;1.00
22578;DHT22;11455;52.390;13.028;2023-04-15T07:33:52;11.40;1.00
22578;DHT22;11455;52.390;13.028;2023-04-15T07:36:18;11.40;1.00
22578;DHT22;11455;52.390;13.028;2023-04-15T07:38:44;11.50;1.00
22578;DHT22;11455;52.390;13.028;2023-04-15T07:41:09;11.50;1.00
22578;DHT22;11455;52.390;13.028;2023-04-15T07:43:35;11.50;1.00
22578;DHT22;11455;52.390;13.028;2023-04-15T07:46:00;11.60;1.00
22578;DHT22;11455;52.390;13.028;2023-04-15T07:48:26;11.70;1.00
22578;DHT22;11455;52.390;13.028;2023-04-15T07:50:52;11.60;1.00
22578;DHT22;11455;52.390;13.028;2023-04-15T07:53:17;11.60;1.00
22578;DHT22;11455;52.390;13.028;2023-04-15T07:55:43;11.60;1.00
22578;DHT22;11455;52.390;13.028;2023-04-15T07:58:09;11.60;1.00
22578;DHT22;11455;52.390;13.028;2023-04-15T08:00:36;11.60;1.00
22578;DHT22;11455;52.390;13.028;2023-04-15T08:03:02;11.60;1.00
22578;DHT22;11455;52.390;13.028;2023-04-15T08:05:31;11.70;1.00
22578;DHT22;11455;52.390;13.028;2023-04-15T08:07:57;11.70;1.00
22578;DHT22;11455;52.390;13.028;2023-04-15T08:10:23;11.70;1.00
22578;DHT22;11455;52.390;13.028;2023-04-15T08:12:48;11.70;1.00
22578;DHT22;11455;52.390;13.028;2023-04-15T08:15:15;11.60;1.00
22578;DHT22;11455;52.390;13.028;2023-04-15T08:17:41;11.60;1.00
22578;DHT22;11455;52.390;13.028;2023-04-15T08:20:07;11.70;1.00
22578;DHT22;11455;52.390;13.028;2023-04-15T08:22:33;11.80;1.00
22578;DHT22;11455;52.390;13.028;2023-04-15T08:24:58;11.80;1.00
22578;DHT22;11455;52.390;13.028;2023-04-15T08:27:24;11.90;1.00
22578;DHT22;11455;52.390;13.028;2023-04-15T08:29:52;11.80;1.00
22578;DHT22;11455;52.390;13.028;2023-04-15T08:32:18;11.70;1.00
22578;DHT22;11455;52.390;13.028;2023-04-15T08:34:47;11.80;1.00
22578;DHT22;11455;52.390;13.028;2023-04-15T08:37:12;11.80;1.00
22578;DHT22;11455;52.390;13.028;2023-04-15T08:39:38;11.90;1.00
22578;DHT22;11455;52.390;13.028;2023-04-15T08:42:05;11.90;1.00
22578;DHT22;11455;52.390;13.028;2023-04-15T08:44:33;11.80;1.00
22578;DHT22;11455;52.390;13.028;2023-04-15T08:47:02;11.80;1.00
22578;DHT22;11455;52.390;13.028;2023-04-15T08:49:28;11.70;1.00
22578;DHT22;11455;52.390;13.028;2023-04-15T08:51:54;11.70;1.00
22578;DHT22;11455;52.390;13.028;2023-04-15T08:54:22;11.60;1.00
22578;DHT22;11455;52.390;13.028;2023-04-15T08:56:51;11.50;1.00
22578;DHT22;11455;52.390;13.028;2023-04-15T08:59:17;11.60;1.00
22578;DHT22;11455;52.390;13.028;2023-04-15T09:01:42;11.60;1.00
22578;DHT22;11455;52.390;13.028;2023-04-15T09:04:08;11.60;1.00
22578;DHT22;11455;52.390;13.028;2023-04-15T09:06:34;11.60;1.00
22578;DHT22;11455;52.390;13.028;2023-04-15T09:09:00;11.60;1.00
22578;DHT22;11455;52.390;13.028;2023-04-15T09:11:25;11.50;1.00
22578;DHT22;11455;52.390;13.028;2023-04-15T09:13:51;11.50;1.00
22578;DHT22;11455;52.390;13.028;2023-04-15T09:16:17;11.60;1.00
22578;DHT22;11455;52.390;13.028;2023-04-15T09:18:43;11.60;1.00
22578;DHT22;11455;52.390;13.028;2023-04-15T09:21:10;11.70;1.00
22578;DHT22;11455;52.390;13.028;2023-04-15T09:23:36;11.80;1.00
22578;DHT22;11455;52.390;13.028;2023-04-15T09:26:05;11.80;1.00
22578;DHT22;11455;52.390;13.028;2023-04-15T09:28:31;11.80;1.00
22578;DHT22;11455;52.390;13.028;2023-04-15T09:31:00;11.70;1.00
22578;DHT22;11455;52.390;13.028;2023-04-15T09:33:27;11.70;1.00
22578;DHT22;11455;52.390;13.028;2023-04-15T09:35:58;11.60;1.00
22578;DHT22;11455;52.390;13.028;2023-04-15T09:38:24;11.70;1.00
22578;DHT22;11455;52.390;13.028;2023-04-15T09:40:49;11.80;1.00
22578;DHT22;11455;52.390;13.028;2023-04-15T09:43:15;11.80;1.00
22578;DHT22;11455;52.390;13.028;2023-04-15T09:45:48;11.70;1.00
22578;DHT22;11455;52.390;13.028;2023-04-15T09:48:20;11.60;1.00
22578;DHT22;11455;52.390;13.028;2023-04-15T09:50:47;11.60;1.00
22578;DHT22;11455;52.390;13.028;2023-04-15T09:53:17;11.60;1.00
22578;DHT22;11455;52.390;13.028;2023-04-15T09:55:44;11.60;1.00
22578;DHT22;11455;52.390;13.028;2023-04-15T09:58:16;11.50;1.00
22578;DHT22;11455;52.390;13.028;2023-04-15T10:00:42;11.60;1.00
22578;DHT22;11455;52.390;13.028;2023-04-15T10:03:08;11.60;1.00
22578;DHT22;11455;52.390;13.028;2023-04-15T10:05:34;11.70;1.00
22578;DHT22;11455;52.390;13.028;2023-04-15T10:08:00;11.60;1.00
22578;DHT22;11455;52.390;13.028;2023-04-15T10:10:26;11.60;1.00
22578;DHT22;11455;52.390;13.028;2023-04-15T10:12:53;11.60;1.00
22578;DHT22;11455;52.390;13.028;2023-04-15T10:15:18;11.60;1.00
22578;DHT22;11455;52.390;13.028;2023-04-15T10:17:45;11.60;1.00
22578;DHT22;11455;52.390;13.028;2023-04-15T10:20:12;11.60;1.00
22578;DHT22;11455;52.390;13.028;2023-04-15T10:22:39;11.70;1.00
22578;DHT22;11455;52.390;13.028;2023-04-15T10:25:08;11.70;1.00
22578;DHT22;11455;52.390;13.028;2023-04-15T10:27:35;11.70;1.00
22578;DHT22;11455;52.390;13.028;2023-04-15T10:30:01;11.70;1.00
22578;DHT22;11455;52.390;13.028;2023-04-15T10:32:28;11.70;1.00
22578;DHT22;11455;52.390;13.028;2023-04-15T10:34:54;11.70;1.00
22578;DHT22;11455;52.390;13.028;2023-04-15T10:37:20;11.70;1.00
22578;DHT22;11455;52.390;13.028;2023-04-15T10:39:47;11.70;1.00
22578;DHT22;11455;52.390;13.028;2023-04-15T10:42:16;11.80;1.00
22578;DHT22;11455;52.390;13.028;2023-04-15T10:44:43;11.80;1.00
22578;DHT22;11455;52.390;13.028;2023-04-15T10:47:16;11.70;1.00
22578;DHT22;11455;52.390;13.028;2023-04-15T10:49:45;11.70;1.00
22578;DHT22;11455;52.390;13.028;2023-04-15T10:52:12;11.70;1.00
22578;DHT22;11455;52.390;13.028;2023-04-15T10:54:38;11.70;1.00
22578;DHT22;11455;52.390;13.028;2023-04-15T11:00:15;11.70;1.00
22578;DHT22;11455;52.390;13.028;2023-04-15T11:05:07;11.70;1.00
22578;DHT22;11455;52.390;13.028;2023-04-15T11:12:47;11.70;1.00
22578;DHT22;11455;52.390;13.028;2023-04-15T11:15:28;11.70;1.00
22578;DHT22;11455;52.390;13.028;2023-04-15T11:20:25;11.70;1.00
22578;DHT22;11455;52.390;13.028;2023-04-15T11:22:54;11.70;1.00
22578;DHT22;11455;52.390;13.028;2023-04-15T11:27:49;11.80;1.00
22578;DHT22;11455;52.390;13.028;2023-04-15T11:30:18;11.80;1.00
22578;DHT22;11455;52.390;13.028;2023-04-15T11:32:46;11.80;1.00
22578;DHT22;11455;52.390;13.028;2023-04-15T11:35:12;11.80;1.00
22578;DHT22;11455;52.390;13.028;2023-04-15T11:37:38;11.90;1.00
22578;DHT22;11455;52.390;13.028;2023-04-15T11:40:03;11.90;1.00
22578;DHT22;11455;52.390;13.028;2023-04-15T11:42:30;11.80;1.00
22578;DHT22;11455;52.390;13.028;2023-04-15T11:45:12;11.80;1.00
22578;DHT22;11455;52.390;13.028;2023-04-15T11:47:39;11.80;1.00
22578;DHT22;11455;52.390;13.028;2023-04-15T11:50:18;11.80;1.00
22578;DHT22;11455;52.390;13.028;2023-04-15T11:52:56;11.80;1.00
22578;DHT22;11455;52.390;13.028;2023-04-15T11:55:23;11.80;1.00
22578;DHT22;11455;52.390;13.028;2023-04-15T11:57:49;11.80;1.00
22578;DHT22;11455;52.390;13.028;2023-04-15T12:00:15;11.70;1.00
22578;DHT22;11455;52.390;13.028;2023-04-15T12:02:42;11.70;1.00
22578;DHT22;11455;52.390;13.028;2023-04-15T12:05:07;11.80;1.00
22578;DHT22;11455;52.390;13.028;2023-04-15T12:10:31;11.90;1.00
22578;DHT22;11455;52.390;13.028;2023-04-15T12:12:57;11.90;1.00
22578;DHT22;11455;52.390;13.028;2023-04-15T12:15:23;11.90;1.00
22578;DHT22;11455;52.390;13.028;2023-04-15T12:17:48;11.90;1.00
22578;DHT22;11455;52.390;13.028;2023-04-15T12:20:24;12.00;1.00
22578;DHT22;11455;52.390;13.028;2023-04-15T12:22:50;12.00;1.00
22578;DHT22;11455;52.390;13.028;2023-04-15T12:25:15;11.90;1.00
22578;DHT22;11455;52.390;13.028;2023-04-15T12:27:49;11.90;1.00
22578;DHT22;11455;52.390;13.028;2023-04-15T12:30:15;12.00;1.00
22578;DHT22;11455;52.390;13.028;2023-04-15T12:32:41;12.00;1.00
22578;DHT22;11455;52.390;13.028;2023-04-15T12:35:07;12.00;1.00
22578;DHT22;11455;52.390;13.028;2023-04-15T12:37:35;12.00;1.00
22578;DHT22;11455;52.390;13.028;2023-04-15T12:40:00;12.00;1.00
22578;DHT22;11455;52.390;13.028;2023-04-15T12:42:26;12.00;1.00
22578;DHT22;11455;52.390;13.028;2023-04-15T12:44:51;12.00;1.00
22578;DHT22;11455;52.390;13.028;2023-04-15T12:47:17;12.00;1.00
22578;DHT22;11455;52.390;13.028;2023-04-15T12:49:43;12.00;1.00
22578;DHT22;11455;52.390;13.028;2023-04-15T12:52:11;12.10;1.00
22578;DHT22;11455;52.390;13.028;2023-04-15T12:54:37;12.10;1.00
22578;DHT22;11455;52.390;13.028;2023-04-15T12:57:06;12.10;1.00
22578;DHT22;11455;52.390;13.028;2023-04-15T12:59:31;12.10;1.00
22578;DHT22;11455;52.390;13.028;2023-04-15T13:01:57;12.10;1.00
22578;DHT22;11455;52.390;13.028;2023-04-15T13:04:25;12.20;1.00
22578;DHT22;11455;52.390;13.028;2023-04-15T13:06:54;12.20;1.00
22578;DHT22;11455;52.390;13.028;2023-04-15T13:09:20;12.10;1.00
22578;DHT22;11455;52.390;13.028;2023-04-15T13:11:46;12.10;1.00
22578;DHT22;11455;52.390;13.028;2023-04-15T13:14:11;12.10;1.00
22578;DHT22;11455;52.390;13.028;2023-04-15T13:16:37;12.20;1.00
22578;DHT22;11455;52.390;13.028;2023-04-15T13:19:03;12.20;1.00
22578;DHT22;11455;52.390;13.028;2023-04-15T13:21:29;12.20;1.00
22578;DHT22;11455;52.390;13.028;2023-04-15T13:23:56;12.20;1.00
22578;DHT22;11455;52.390;13.028;2023-04-15T13:26:22;12.20;1.00
22578;DHT22;11455;52.390;13.028;2023-04-15T13:28:50;12.20;1.00
22578;DHT22;11455;52.390;13.028;2023-04-15T13:31:15;12.20;1.00
22578;DHT22;11455;52.390;13.028;2023-04-15T13:33:43;12.30;1.00
22578;DHT22;11455;52.390;13.028;2023-04-15T13:36:09;12.20;1.00
22578;DHT22;11455;52.390;13.028;2023-04-15T13:38:35;12.20;1.00
22578;DHT22;11455;52.390;13.028;2023-04-15T13:41:00;12.20;1.00
22578;DHT22;11455;52.390;13.028;2023-04-15T13:43:26;12.10;1.00
22578;DHT22;11455;52.390;13.028;2023-04-15T13:45:52;12.10;1.00
22578;DHT22;11455;52.390;13.028;2023-04-15T13:48:17;12.10;1.00
22578;DHT22;11455;52.390;13.028;2023-04-15T13:50:43;12.10;1.00
22578;DHT22;11455;52.390;13.028;2023-04-15T13:53:13;12.20;1.00
22578;DHT22;11455;52.390;13.028;2023-04-15T13:55:38;12.20;1.00
22578;DHT22;11455;52.390;13.028;2023-04-15T13:58:06;12.10;1.00
22578;DHT22;11455;52.390;13.028;2023-04-15T14:00:34;12.10;1.00
22578;DHT22;11455;52.390;13.028;2023-04-15T14:03:02;12.00;1.00
22578;DHT22;11455;52.390;13.028;2023-04-15T14:05:31;12.10;1.00
22578;DHT22;11455;52.390;13.028;2023-04-15T14:07:57;12.00;1.00
22578;DHT22;11455;52.390;13.028;2023-04-15T14:10:23;12.00;1.00
22578;DHT22;11455;52.390;13.028;2023-04-15T14:12:49;12.10;1.00
22578;DHT22;11455;52.390;13.028;2023-04-15T14:15:15;12.10;1.00
22578;DHT22;11455;52.390;13.028;2023-04-15T14:17:40;12.10;1.00
22578;DHT22;11455;52.390;13.028;2023-04-15T14:20:07;12.00;1.00
22578;DHT22;11455;52.390;13.028;2023-04-15T14:22:33;12.10;1.00
22578;DHT22;11455;52.390;13.028;2023-04-15T14:24:58;12.10;1.00
22578;DHT22;11455;52.390;13.028;2023-04-15T14:27:25;12.10;1.00
22578;DHT22;11455;52.390;13.028;2023-04-15T14:29:51;12.10;1.00
22578;DHT22;11455;52.390;13.028;2023-04-15T14:32:18;12.10;1.00
22578;DHT22;11455;52.390;13.028;2023-04-15T14:34:46;12.20;1.00
22578;DHT22;11455;52.390;13.028;2023-04-15T14:37:12;12.20;1.00
22578;DHT22;11455;52.390;13.028;2023-04-15T14:39:38;12.10;1.00
22578;DHT22;11455;52.390;13.028;2023-04-15T14:42:04;12.10;1.00
22578;DHT22;11455;52.390;13.028;2023-04-15T14:44:30;12.10;1.00
22578;DHT22;11455;52.390;13.028;2023-04-15T14:46:58;12.10;1.00
22578;DHT22;11455;52.390;13.028;2023-04-15T14:49:24;12.00;1.00
22578;DHT22;11455;52.390;13.028;2023-04-15T14:51:50;12.00;1.00
22578;DHT22;11455;52.390;13.028;2023-04-15T14:54:16;12.00;1.00
22578;DHT22;11455;52.390;13.028;2023-04-15T14:56:41;12.00;1.00
22578;DHT22;11455;52.390;13.028;2023-04-15T14:59:07;12.00;1.00
22578;DHT22;11455;52.390;13.028;2023-04-15T15:01:33;12.00;1.00
22578;DHT22;11455;52.390;13.028;2023-04-15T15:03:58;12.00;1.00
22578;DHT22;11455;52.390;13.028;2023-04-15T15:06:24;12.00;1.00
22578;DHT22;11455;52.390;13.028;2023-04-15T15:08:52;12.00;1.00
22578;DHT22;11455;52.390;13.028;2023-04-15T15:11:21;12.00;1.00
22578;DHT22;11455;52.390;13.028;2023-04-15T15:13:46;12.00;1.00
22578;DHT22;11455;52.390;13.028;2023-04-15T15:16:12;12.00;1.00
22578;DHT22;11455;52.390;13.028;2023-04-15T15:18:37;12.00;1.00
22578;DHT22;11455;52.390;13.028;2023-04-15T15:21:03;12.00;1.00
22578;DHT22;11455;52.390;13.028;2023-04-15T15:23:29;12.00;1.00
22578;DHT22;11455;52.390;13.028;2023-04-15T15:25:54;12.00;1.00
22578;DHT22;11455;52.390;13.028;2023-04-15T15:28:20;12.00;1.00
22578;DHT22;11455;52.390;13.028;2023-04-15T15:30:46;12.00;1.00
22578;DHT22;11455;52.390;13.028;2023-04-15T15:33:12;12.10;1.00
22578;DHT22;11455;52.390;13.028;2023-04-15T15:35:37;12.10;1.00
22578;DHT22;11455;52.390;13.028;2023-04-15T15:38:03;12.00;1.00
22578;DHT22;11455;52.390;13.028;2023-04-15T15:40:29;12.10;1.00
22578;DHT22;11455;52.390;13.028;2023-04-15T15:42:55;12.10;1.00
22578;DHT22;11455;52.390;13.028;2023-04-15T15:45:20;12.10;1.00
22578;DHT22;11455;52.390;13.028;2023-04-15T15:47:46;12.00;1.00
22578;DHT22;11455;52.390;13.028;2023-04-15T15:50:12;11.90;1.00